sensor_id;sensor_type;location;lat;lon;timestamp;P1;durP1;ratioP1;P2;durP2;ratioP2
21402;SDS011;10862;51.886;17.078;2022-10-31T00:00:54;47.97;;;28.13;;
21402;SDS011;10862;51.886;17.078;2022-10-31T00:03:20;54.90;;;30.43;;
21402;SDS011;10862;51.886;17.078;2022-10-31T00:05:46;51.73;;;30.83;;
21402;SDS011;10862;51.886;17.078;2022-10-31T00:08:13;52.53;;;30.70;;
21402;SDS011;10862;51.886;17.078;2022-10-31T00:10:39;49.53;;;29.47;;
21402;SDS011;10862;51.886;17.078;2022-10-31T00:13:06;57.57;;;30.73;;
21402;SDS011;10862;51.886;17.078;2022-10-31T00:15:36;63.77;;;32.83;;
21402;SDS011;10862;51.886;17.078;2022-10-31T00:18:03;77.10;;;36.10;;
21402;SDS011;10862;51.886;17.078;2022-10-31T00:20:30;72.77;;;36.93;;
21402;SDS011;10862;51.886;17.078;2022-10-31T00:22:59;61.60;;;31.60;;
21402;SDS011;10862;51.886;17.078;2022-10-31T00:25:26;54.43;;;29.30;;
21402;SDS011;10862;51.886;17.078;2022-10-31T00:27:52;43.00;;;25.10;;
21402;SDS011;10862;51.886;17.078;2022-10-31T00:30:18;42.20;;;26.83;;
21402;SDS011;10862;51.886;17.078;2022-10-31T00:32:43;41.07;;;25.80;;
21402;SDS011;10862;51.886;17.078;2022-10-31T00:35:09;44.13;;;28.10;;
21402;SDS011;10862;51.886;17.078;2022-10-31T00:37:34;44.73;;;27.33;;
21402;SDS011;10862;51.886;17.078;2022-10-31T00:40:00;44.07;;;24.83;;
21402;SDS011;10862;51.886;17.078;2022-10-31T00:42:26;41.50;;;24.17;;
21402;SDS011;10862;51.886;17.078;2022-10-31T00:44:51;36.73;;;23.73;;
21402;SDS011;10862;51.886;17.078;2022-10-31T00:47:17;40.83;;;24.60;;
21402;SDS011;10862;51.886;17.078;2022-10-31T00:49:43;41.70;;;23.57;;
21402;SDS011;10862;51.886;17.078;2022-10-31T00:52:08;36.87;;;24.73;;
21402;SDS011;10862;51.886;17.078;2022-10-31T00:54:34;36.47;;;23.23;;
21402;SDS011;10862;51.886;17.078;2022-10-31T00:56:59;39.87;;;24.00;;
21402;SDS011;10862;51.886;17.078;2022-10-31T00:59:25;37.50;;;25.30;;
21402;SDS011;10862;51.886;17.078;2022-10-31T01:01:51;43.00;;;23.43;;
21402;SDS011;10862;51.886;17.078;2022-10-31T01:04:16;40.90;;;25.07;;
21402;SDS011;10862;51.886;17.078;2022-10-31T01:06:42;43.60;;;25.27;;
21402;SDS011;10862;51.886;17.078;2022-10-31T01:09:07;39.90;;;24.93;;
21402;SDS011;10862;51.886;17.078;2022-10-31T01:11:33;46.37;;;26.67;;
21402;SDS011;10862;51.886;17.078;2022-10-31T01:13:59;46.40;;;25.87;;
21402;SDS011;10862;51.886;17.078;2022-10-31T01:16:25;42.70;;;24.63;;
21402;SDS011;10862;51.886;17.078;2022-10-31T01:18:52;40.77;;;25.53;;
21402;SDS011;10862;51.886;17.078;2022-10-31T01:21:21;39.83;;;25.90;;
21402;SDS011;10862;51.886;17.078;2022-10-31T01:23:49;43.83;;;25.70;;
21402;SDS011;10862;51.886;17.078;2022-10-31T01:26:19;37.93;;;24.77;;
21402;SDS011;10862;51.886;17.078;2022-10-31T01:28:52;45.27;;;26.23;;
21402;SDS011;10862;51.886;17.078;2022-10-31T01:31:26;46.03;;;26.70;;
21402;SDS011;10862;51.886;17.078;2022-10-31T01:33:53;43.70;;;26.90;;
21402;SDS011;10862;51.886;17.078;2022-10-31T01:36:21;42.53;;;25.93;;
21402;SDS011;10862;51.886;17.078;2022-10-31T01:38:49;46.73;;;26.43;;
21402;SDS011;10862;51.886;17.078;2022-10-31T01:41:17;41.93;;;25.47;;
21402;SDS011;10862;51.886;17.078;2022-10-31T01:46:10;37.17;;;23.13;;
21402;SDS011;10862;51.886;17.078;2022-10-31T01:48:37;35.47;;;22.73;;
21402;SDS011;10862;51.886;17.078;2022-10-31T01:51:04;44.70;;;25.50;;
21402;SDS011;10862;51.886;17.078;2022-10-31T01:53:31;40.77;;;25.73;;
21402;SDS011;10862;51.886;17.078;2022-10-31T01:55:57;43.60;;;25.77;;
21402;SDS011;10862;51.886;17.078;2022-10-31T01:58:24;47.03;;;27.63;;
21402;SDS011;10862;51.886;17.078;2022-10-31T02:00:53;50.70;;;28.97;;
21402;SDS011;10862;51.886;17.078;2022-10-31T02:03:22;47.90;;;27.70;;
21402;SDS011;10862;51.886;17.078;2022-10-31T02:05:48;58.37;;;36.93;;
21402;SDS011;10862;51.886;17.078;2022-10-31T02:08:30;50.47;;;36.17;;
21402;SDS011;10862;51.886;17.078;2022-10-31T02:10:58;51.50;;;34.40;;
21402;SDS011;10862;51.886;17.078;2022-10-31T02:13:25;62.33;;;44.03;;
21402;SDS011;10862;51.886;17.078;2022-10-31T02:15:54;64.33;;;41.47;;
21402;SDS011;10862;51.886;17.078;2022-10-31T02:18:24;53.53;;;34.63;;
21402;SDS011;10862;51.886;17.078;2022-10-31T02:20:56;77.70;;;46.80;;
21402;SDS011;10862;51.886;17.078;2022-10-31T02:29:16;59.70;;;35.90;;
21402;SDS011;10862;51.886;17.078;2022-10-31T02:32:03;95.00;;;48.40;;
21402;SDS011;10862;51.886;17.078;2022-10-31T02:37:50;37.03;;;24.17;;
21402;SDS011;10862;51.886;17.078;2022-10-31T02:40:25;41.37;;;25.83;;
21402;SDS011;10862;51.886;17.078;2022-10-31T02:43:17;42.43;;;26.20;;
21402;SDS011;10862;51.886;17.078;2022-10-31T02:45:49;47.50;;;27.60;;
21402;SDS011;10862;51.886;17.078;2022-10-31T02:48:19;50.77;;;29.33;;
21402;SDS011;10862;51.886;17.078;2022-10-31T02:50:50;47.23;;;27.27;;
21402;SDS011;10862;51.886;17.078;2022-10-31T02:53:21;49.60;;;27.87;;
21402;SDS011;10862;51.886;17.078;2022-10-31T02:55:55;39.30;;;23.83;;
21402;SDS011;10862;51.886;17.078;2022-10-31T02:58:30;41.00;;;24.77;;
21402;SDS011;10862;51.886;17.078;2022-10-31T03:01:05;46.07;;;25.13;;
21402;SDS011;10862;51.886;17.078;2022-10-31T03:06:45;39.70;;;25.40;;
21402;SDS011;10862;51.886;17.078;2022-10-31T03:09:45;40.03;;;26.57;;
21402;SDS011;10862;51.886;17.078;2022-10-31T03:12:38;41.57;;;25.77;;
21402;SDS011;10862;51.886;17.078;2022-10-31T03:20:15;45.90;;;30.37;;
21402;SDS011;10862;51.886;17.078;2022-10-31T03:22:45;44.20;;;29.13;;
21402;SDS011;10862;51.886;17.078;2022-10-31T03:25:11;46.03;;;28.13;;
21402;SDS011;10862;51.886;17.078;2022-10-31T03:27:38;42.77;;;27.70;;
21402;SDS011;10862;51.886;17.078;2022-10-31T03:30:07;41.90;;;28.37;;
21402;SDS011;10862;51.886;17.078;2022-10-31T03:32:35;45.63;;;27.20;;
21402;SDS011;10862;51.886;17.078;2022-10-31T03:35:22;44.53;;;26.27;;
21402;SDS011;10862;51.886;17.078;2022-10-31T03:37:49;49.73;;;26.57;;
21402;SDS011;10862;51.886;17.078;2022-10-31T03:40:19;39.50;;;25.27;;
21402;SDS011;10862;51.886;17.078;2022-10-31T03:42:50;37.20;;;23.93;;
21402;SDS011;10862;51.886;17.078;2022-10-31T03:45:29;40.07;;;24.20;;
21402;SDS011;10862;51.886;17.078;2022-10-31T03:47:56;36.73;;;25.23;;
21402;SDS011;10862;51.886;17.078;2022-10-31T03:50:24;36.93;;;24.67;;
21402;SDS011;10862;51.886;17.078;2022-10-31T03:53:04;39.57;;;26.63;;
21402;SDS011;10862;51.886;17.078;2022-10-31T04:01:04;33.37;;;21.43;;
21402;SDS011;10862;51.886;17.078;2022-10-31T04:03:33;36.77;;;22.33;;
21402;SDS011;10862;51.886;17.078;2022-10-31T04:06:03;35.97;;;22.30;;
21402;SDS011;10862;51.886;17.078;2022-10-31T04:08:38;38.80;;;21.97;;
21402;SDS011;10862;51.886;17.078;2022-10-31T04:11:08;37.50;;;24.87;;
21402;SDS011;10862;51.886;17.078;2022-10-31T04:13:36;37.03;;;22.50;;
21402;SDS011;10862;51.886;17.078;2022-10-31T04:16:04;36.93;;;23.73;;
21402;SDS011;10862;51.886;17.078;2022-10-31T04:18:31;46.90;;;22.90;;
21402;SDS011;10862;51.886;17.078;2022-10-31T04:21:03;47.93;;;28.43;;
21402;SDS011;10862;51.886;17.078;2022-10-31T04:23:31;38.03;;;24.83;;
21402;SDS011;10862;51.886;17.078;2022-10-31T04:25:58;32.60;;;23.50;;
21402;SDS011;10862;51.886;17.078;2022-10-31T04:28:23;37.87;;;23.67;;
21402;SDS011;10862;51.886;17.078;2022-10-31T04:30:49;35.30;;;22.63;;
21402;SDS011;10862;51.886;17.078;2022-10-31T04:33:15;41.27;;;23.47;;
21402;SDS011;10862;51.886;17.078;2022-10-31T04:35:41;38.10;;;26.03;;
21402;SDS011;10862;51.886;17.078;2022-10-31T04:38:06;35.10;;;23.23;;
21402;SDS011;10862;51.886;17.078;2022-10-31T04:40:32;31.73;;;21.90;;
21402;SDS011;10862;51.886;17.078;2022-10-31T04:42:57;32.80;;;21.93;;
21402;SDS011;10862;51.886;17.078;2022-10-31T04:45:23;36.07;;;22.90;;
21402;SDS011;10862;51.886;17.078;2022-10-31T04:47:49;55.13;;;30.27;;
21402;SDS011;10862;51.886;17.078;2022-10-31T04:50:14;44.33;;;25.17;;
21402;SDS011;10862;51.886;17.078;2022-10-31T04:52:40;52.70;;;31.53;;
21402;SDS011;10862;51.886;17.078;2022-10-31T04:55:07;41.43;;;26.70;;
21402;SDS011;10862;51.886;17.078;2022-10-31T04:57:40;43.43;;;25.47;;
21402;SDS011;10862;51.886;17.078;2022-10-31T05:00:13;37.00;;;22.77;;
21402;SDS011;10862;51.886;17.078;2022-10-31T05:05:14;35.93;;;23.63;;
21402;SDS011;10862;51.886;17.078;2022-10-31T05:07:42;34.17;;;24.07;;
21402;SDS011;10862;51.886;17.078;2022-10-31T05:10:09;46.43;;;28.47;;
21402;SDS011;10862;51.886;17.078;2022-10-31T05:12:36;57.30;;;30.87;;
21402;SDS011;10862;51.886;17.078;2022-10-31T05:15:02;47.40;;;28.40;;
21402;SDS011;10862;51.886;17.078;2022-10-31T05:17:30;46.63;;;27.63;;
21402;SDS011;10862;51.886;17.078;2022-10-31T05:19:56;42.63;;;27.03;;
21402;SDS011;10862;51.886;17.078;2022-10-31T05:22:21;40.90;;;25.57;;
21402;SDS011;10862;51.886;17.078;2022-10-31T05:24:47;51.37;;;26.67;;
21402;SDS011;10862;51.886;17.078;2022-10-31T05:27:12;49.97;;;26.27;;
21402;SDS011;10862;51.886;17.078;2022-10-31T05:29:38;46.20;;;26.03;;
21402;SDS011;10862;51.886;17.078;2022-10-31T05:32:04;43.40;;;24.90;;
21402;SDS011;10862;51.886;17.078;2022-10-31T05:34:29;36.70;;;22.50;;
21402;SDS011;10862;51.886;17.078;2022-10-31T05:36:55;37.33;;;23.77;;
21402;SDS011;10862;51.886;17.078;2022-10-31T05:39:20;32.67;;;21.97;;
21402;SDS011;10862;51.886;17.078;2022-10-31T05:41:46;38.07;;;22.60;;
21402;SDS011;10862;51.886;17.078;2022-10-31T05:44:11;36.77;;;23.23;;
21402;SDS011;10862;51.886;17.078;2022-10-31T05:46:37;42.73;;;24.83;;
21402;SDS011;10862;51.886;17.078;2022-10-31T05:49:03;38.40;;;22.43;;
21402;SDS011;10862;51.886;17.078;2022-10-31T05:51:28;38.70;;;24.13;;
21402;SDS011;10862;51.886;17.078;2022-10-31T05:53:54;32.33;;;23.33;;
21402;SDS011;10862;51.886;17.078;2022-10-31T05:56:19;37.10;;;22.90;;
21402;SDS011;10862;51.886;17.078;2022-10-31T05:58:45;32.43;;;23.00;;
21402;SDS011;10862;51.886;17.078;2022-10-31T06:01:10;35.60;;;23.03;;
21402;SDS011;10862;51.886;17.078;2022-10-31T06:03:36;40.93;;;23.07;;
21402;SDS011;10862;51.886;17.078;2022-10-31T06:06:02;40.47;;;22.10;;
21402;SDS011;10862;51.886;17.078;2022-10-31T06:08:27;32.23;;;21.77;;
21402;SDS011;10862;51.886;17.078;2022-10-31T06:10:53;36.53;;;22.60;;
21402;SDS011;10862;51.886;17.078;2022-10-31T06:13:19;33.10;;;21.73;;
21402;SDS011;10862;51.886;17.078;2022-10-31T06:15:44;43.53;;;26.73;;
21402;SDS011;10862;51.886;17.078;2022-10-31T06:18:10;36.47;;;26.47;;
21402;SDS011;10862;51.886;17.078;2022-10-31T06:20:35;37.37;;;24.03;;
21402;SDS011;10862;51.886;17.078;2022-10-31T06:23:01;36.13;;;24.10;;
21402;SDS011;10862;51.886;17.078;2022-10-31T06:25:27;33.53;;;22.73;;
21402;SDS011;10862;51.886;17.078;2022-10-31T06:27:53;29.60;;;20.97;;
21402;SDS011;10862;51.886;17.078;2022-10-31T06:30:19;29.07;;;21.40;;
21402;SDS011;10862;51.886;17.078;2022-10-31T06:32:45;31.57;;;21.17;;
21402;SDS011;10862;51.886;17.078;2022-10-31T06:35:11;33.87;;;21.67;;
21402;SDS011;10862;51.886;17.078;2022-10-31T06:37:37;42.87;;;23.13;;
21402;SDS011;10862;51.886;17.078;2022-10-31T06:40:03;35.97;;;23.13;;
21402;SDS011;10862;51.886;17.078;2022-10-31T06:42:28;29.47;;;20.93;;
21402;SDS011;10862;51.886;17.078;2022-10-31T06:44:54;35.50;;;21.90;;
21402;SDS011;10862;51.886;17.078;2022-10-31T06:47:20;47.60;;;28.50;;
21402;SDS011;10862;51.886;17.078;2022-10-31T06:49:45;50.43;;;27.33;;
21402;SDS011;10862;51.886;17.078;2022-10-31T06:52:11;42.07;;;29.13;;
21402;SDS011;10862;51.886;17.078;2022-10-31T06:54:36;44.07;;;26.90;;
21402;SDS011;10862;51.886;17.078;2022-10-31T06:57:02;37.00;;;25.10;;
21402;SDS011;10862;51.886;17.078;2022-10-31T06:59:28;39.10;;;24.00;;
21402;SDS011;10862;51.886;17.078;2022-10-31T07:01:53;40.00;;;25.23;;
21402;SDS011;10862;51.886;17.078;2022-10-31T07:04:19;42.07;;;24.77;;
21402;SDS011;10862;51.886;17.078;2022-10-31T07:06:44;37.90;;;24.60;;
21402;SDS011;10862;51.886;17.078;2022-10-31T07:09:10;35.43;;;22.37;;
21402;SDS011;10862;51.886;17.078;2022-10-31T07:11:36;38.90;;;21.30;;
21402;SDS011;10862;51.886;17.078;2022-10-31T07:14:01;38.13;;;24.20;;
21402;SDS011;10862;51.886;17.078;2022-10-31T07:16:27;33.70;;;23.80;;
21402;SDS011;10862;51.886;17.078;2022-10-31T07:18:53;32.47;;;20.93;;
21402;SDS011;10862;51.886;17.078;2022-10-31T07:21:18;32.87;;;21.03;;
21402;SDS011;10862;51.886;17.078;2022-10-31T07:23:46;31.50;;;21.20;;
21402;SDS011;10862;51.886;17.078;2022-10-31T07:26:13;34.10;;;19.73;;
21402;SDS011;10862;51.886;17.078;2022-10-31T07:28:39;30.87;;;20.27;;
21402;SDS011;10862;51.886;17.078;2022-10-31T07:31:04;38.30;;;22.10;;
21402;SDS011;10862;51.886;17.078;2022-10-31T07:33:30;32.13;;;20.97;;
21402;SDS011;10862;51.886;17.078;2022-10-31T07:35:56;37.83;;;21.27;;
21402;SDS011;10862;51.886;17.078;2022-10-31T07:38:21;32.80;;;20.47;;
21402;SDS011;10862;51.886;17.078;2022-10-31T07:40:50;37.27;;;22.83;;
21402;SDS011;10862;51.886;17.078;2022-10-31T07:43:17;41.53;;;24.43;;
21402;SDS011;10862;51.886;17.078;2022-10-31T07:45:43;41.73;;;27.00;;
21402;SDS011;10862;51.886;17.078;2022-10-31T07:48:13;41.57;;;24.43;;
21402;SDS011;10862;51.886;17.078;2022-10-31T07:50:39;43.37;;;22.97;;
21402;SDS011;10862;51.886;17.078;2022-10-31T07:53:09;35.10;;;22.77;;
21402;SDS011;10862;51.886;17.078;2022-10-31T07:55:36;44.30;;;24.57;;
21402;SDS011;10862;51.886;17.078;2022-10-31T07:58:03;46.80;;;24.40;;
21402;SDS011;10862;51.886;17.078;2022-10-31T08:00:30;55.37;;;26.90;;
21402;SDS011;10862;51.886;17.078;2022-10-31T08:03:04;33.93;;;20.70;;
21402;SDS011;10862;51.886;17.078;2022-10-31T08:05:31;36.57;;;19.80;;
21402;SDS011;10862;51.886;17.078;2022-10-31T08:07:58;35.10;;;19.37;;
21402;SDS011;10862;51.886;17.078;2022-10-31T08:10:24;34.50;;;19.17;;
21402;SDS011;10862;51.886;17.078;2022-10-31T08:12:57;26.13;;;18.23;;
21402;SDS011;10862;51.886;17.078;2022-10-31T08:15:28;34.90;;;19.57;;
21402;SDS011;10862;51.886;17.078;2022-10-31T08:17:54;34.07;;;19.53;;
21402;SDS011;10862;51.886;17.078;2022-10-31T08:20:20;30.70;;;18.57;;
21402;SDS011;10862;51.886;17.078;2022-10-31T08:22:53;38.60;;;19.67;;
21402;SDS011;10862;51.886;17.078;2022-10-31T08:25:26;33.10;;;19.37;;
21402;SDS011;10862;51.886;17.078;2022-10-31T08:27:54;27.60;;;18.37;;
21402;SDS011;10862;51.886;17.078;2022-10-31T08:30:21;32.73;;;18.73;;
21402;SDS011;10862;51.886;17.078;2022-10-31T08:32:56;24.13;;;17.43;;
21402;SDS011;10862;51.886;17.078;2022-10-31T08:35:23;28.00;;;18.13;;
21402;SDS011;10862;51.886;17.078;2022-10-31T08:37:52;28.97;;;18.90;;
21402;SDS011;10862;51.886;17.078;2022-10-31T08:40:19;30.87;;;18.33;;
21402;SDS011;10862;51.886;17.078;2022-10-31T08:42:45;29.47;;;18.80;;
21402;SDS011;10862;51.886;17.078;2022-10-31T08:45:10;32.73;;;19.87;;
21402;SDS011;10862;51.886;17.078;2022-10-31T08:47:36;35.77;;;18.70;;
21402;SDS011;10862;51.886;17.078;2022-10-31T08:50:01;27.43;;;18.67;;
21402;SDS011;10862;51.886;17.078;2022-10-31T08:52:27;36.20;;;17.77;;
21402;SDS011;10862;51.886;17.078;2022-10-31T08:54:53;26.83;;;18.67;;
21402;SDS011;10862;51.886;17.078;2022-10-31T08:57:18;28.97;;;18.10;;
21402;SDS011;10862;51.886;17.078;2022-10-31T08:59:44;27.20;;;16.43;;
21402;SDS011;10862;51.886;17.078;2022-10-31T09:02:10;24.87;;;15.83;;
21402;SDS011;10862;51.886;17.078;2022-10-31T09:04:35;29.37;;;16.60;;
21402;SDS011;10862;51.886;17.078;2022-10-31T09:07:01;30.50;;;17.53;;
21402;SDS011;10862;51.886;17.078;2022-10-31T09:09:26;31.97;;;17.13;;
21402;SDS011;10862;51.886;17.078;2022-10-31T09:11:52;27.23;;;16.43;;
21402;SDS011;10862;51.886;17.078;2022-10-31T09:14:18;27.47;;;16.73;;
21402;SDS011;10862;51.886;17.078;2022-10-31T09:16:43;27.47;;;16.27;;
21402;SDS011;10862;51.886;17.078;2022-10-31T09:19:09;24.90;;;17.00;;
21402;SDS011;10862;51.886;17.078;2022-10-31T09:21:34;31.63;;;16.23;;
21402;SDS011;10862;51.886;17.078;2022-10-31T09:24:00;29.90;;;16.90;;
21402;SDS011;10862;51.886;17.078;2022-10-31T09:26:26;43.47;;;24.83;;
21402;SDS011;10862;51.886;17.078;2022-10-31T09:28:51;40.70;;;24.87;;
21402;SDS011;10862;51.886;17.078;2022-10-31T09:31:17;39.10;;;23.53;;
21402;SDS011;10862;51.886;17.078;2022-10-31T09:33:42;34.47;;;23.43;;
21402;SDS011;10862;51.886;17.078;2022-10-31T09:36:08;36.40;;;20.33;;
21402;SDS011;10862;51.886;17.078;2022-10-31T09:38:34;37.23;;;22.10;;
21402;SDS011;10862;51.886;17.078;2022-10-31T09:41:06;32.53;;;19.87;;
21402;SDS011;10862;51.886;17.078;2022-10-31T09:52:33;29.38;;;19.95;;
21402;SDS011;10862;51.886;17.078;2022-10-31T09:57:48;43.40;;;22.00;;
21402;SDS011;10862;51.886;17.078;2022-10-31T10:00:16;37.80;;;23.92;;
21402;SDS011;10862;51.886;17.078;2022-10-31T10:05:17;44.33;;;26.33;;
21402;SDS011;10862;51.886;17.078;2022-10-31T10:16:41;34.63;;;22.58;;
21402;SDS011;10862;51.886;17.078;2022-10-31T10:25:13;29.80;;;19.30;;
21402;SDS011;10862;51.886;17.078;2022-10-31T10:30:32;36.40;;;24.80;;
21402;SDS011;10862;51.886;17.078;2022-10-31T10:33:08;35.05;;;26.08;;
21402;SDS011;10862;51.886;17.078;2022-10-31T10:35:47;38.67;;;27.35;;
21402;SDS011;10862;51.886;17.078;2022-10-31T10:41:28;34.42;;;25.05;;
21402;SDS011;10862;51.886;17.078;2022-10-31T10:43:56;43.40;;;28.27;;
21402;SDS011;10862;51.886;17.078;2022-10-31T10:49:36;54.38;;;39.95;;
21402;SDS011;10862;51.886;17.078;2022-10-31T11:00:20;39.92;;;30.45;;
21402;SDS011;10862;51.886;17.078;2022-10-31T11:02:51;42.95;;;30.75;;
21402;SDS011;10862;51.886;17.078;2022-10-31T11:07:59;44.80;;;27.25;;
21402;SDS011;10862;51.886;17.078;2022-10-31T11:10:25;34.17;;;23.40;;
21402;SDS011;10862;51.886;17.078;2022-10-31T11:12:58;33.22;;;22.33;;
21402;SDS011;10862;51.886;17.078;2022-10-31T11:15:27;31.90;;;22.73;;
21402;SDS011;10862;51.886;17.078;2022-10-31T11:17:58;30.27;;;22.48;;
21402;SDS011;10862;51.886;17.078;2022-10-31T11:23:00;37.33;;;23.10;;
21402;SDS011;10862;51.886;17.078;2022-10-31T11:25:40;37.60;;;23.77;;
21402;SDS011;10862;51.886;17.078;2022-10-31T11:28:14;34.03;;;24.17;;
21402;SDS011;10862;51.886;17.078;2022-10-31T11:30:58;39.85;;;25.13;;
21402;SDS011;10862;51.886;17.078;2022-10-31T11:33:35;36.78;;;24.85;;
21402;SDS011;10862;51.886;17.078;2022-10-31T11:36:14;33.13;;;22.23;;
21402;SDS011;10862;51.886;17.078;2022-10-31T11:38:41;36.72;;;22.48;;
21402;SDS011;10862;51.886;17.078;2022-10-31T11:41:13;36.28;;;21.13;;
21402;SDS011;10862;51.886;17.078;2022-10-31T11:44:42;43.03;;;21.98;;
21402;SDS011;10862;51.886;17.078;2022-10-31T11:49:11;37.30;;;24.30;;
21402;SDS011;10862;51.886;17.078;2022-10-31T11:51:41;38.13;;;25.30;;
21402;SDS011;10862;51.886;17.078;2022-10-31T11:54:15;40.20;;;22.95;;
21402;SDS011;10862;51.886;17.078;2022-10-31T11:56:45;45.22;;;24.63;;
21402;SDS011;10862;51.886;17.078;2022-10-31T11:59:15;35.75;;;23.38;;
21402;SDS011;10862;51.886;17.078;2022-10-31T12:01:53;41.28;;;23.92;;
21402;SDS011;10862;51.886;17.078;2022-10-31T12:04:23;36.83;;;25.55;;
21402;SDS011;10862;51.886;17.078;2022-10-31T12:07:06;41.08;;;25.08;;
21402;SDS011;10862;51.886;17.078;2022-10-31T12:09:33;41.10;;;25.45;;
21402;SDS011;10862;51.886;17.078;2022-10-31T12:17:40;38.78;;;24.40;;
21402;SDS011;10862;51.886;17.078;2022-10-31T12:23:25;40.58;;;24.63;;
21402;SDS011;10862;51.886;17.078;2022-10-31T12:26:21;31.35;;;23.52;;
21402;SDS011;10862;51.886;17.078;2022-10-31T12:31:58;43.05;;;24.60;;
21402;SDS011;10862;51.886;17.078;2022-10-31T12:43:13;38.25;;;24.92;;
21402;SDS011;10862;51.886;17.078;2022-10-31T12:48:24;33.60;;;23.17;;
21402;SDS011;10862;51.886;17.078;2022-10-31T12:51:24;38.92;;;24.40;;
21402;SDS011;10862;51.886;17.078;2022-10-31T12:54:12;31.75;;;21.70;;
21402;SDS011;10862;51.886;17.078;2022-10-31T12:57:02;32.95;;;23.27;;
21402;SDS011;10862;51.886;17.078;2022-10-31T13:05:31;39.80;;;24.17;;
21402;SDS011;10862;51.886;17.078;2022-10-31T13:07:57;35.40;;;24.05;;
21402;SDS011;10862;51.886;17.078;2022-10-31T13:10:31;35.10;;;21.00;;
21402;SDS011;10862;51.886;17.078;2022-10-31T13:13:11;35.58;;;21.23;;
21402;SDS011;10862;51.886;17.078;2022-10-31T13:15:51;45.72;;;23.08;;
21402;SDS011;10862;51.886;17.078;2022-10-31T13:18:30;43.92;;;22.70;;
21402;SDS011;10862;51.886;17.078;2022-10-31T13:21:01;37.67;;;26.25;;
21402;SDS011;10862;51.886;17.078;2022-10-31T13:23:33;40.17;;;25.55;;
21402;SDS011;10862;51.886;17.078;2022-10-31T13:26:03;39.67;;;25.75;;
21402;SDS011;10862;51.886;17.078;2022-10-31T13:31:13;43.78;;;24.00;;
21402;SDS011;10862;51.886;17.078;2022-10-31T13:33:41;38.28;;;24.27;;
21402;SDS011;10862;51.886;17.078;2022-10-31T13:38:52;40.58;;;23.08;;
21402;SDS011;10862;51.886;17.078;2022-10-31T13:41:42;39.33;;;23.42;;
21402;SDS011;10862;51.886;17.078;2022-10-31T13:44:24;51.35;;;27.95;;
21402;SDS011;10862;51.886;17.078;2022-10-31T13:46:52;47.85;;;28.27;;
21402;SDS011;10862;51.886;17.078;2022-10-31T13:54:39;41.58;;;23.58;;
21402;SDS011;10862;51.886;17.078;2022-10-31T13:57:15;39.00;;;25.25;;
21402;SDS011;10862;51.886;17.078;2022-10-31T13:59:48;42.22;;;25.20;;
21402;SDS011;10862;51.886;17.078;2022-10-31T14:02:25;51.03;;;27.33;;
21402;SDS011;10862;51.886;17.078;2022-10-31T14:04:55;43.08;;;24.58;;
21402;SDS011;10862;51.886;17.078;2022-10-31T14:07:43;40.17;;;25.00;;
21402;SDS011;10862;51.886;17.078;2022-10-31T14:12:47;33.70;;;22.08;;
21402;SDS011;10862;51.886;17.078;2022-10-31T14:15:16;39.10;;;22.33;;
21402;SDS011;10862;51.886;17.078;2022-10-31T14:17:47;32.47;;;21.40;;
21402;SDS011;10862;51.886;17.078;2022-10-31T14:20:30;34.28;;;22.67;;
21402;SDS011;10862;51.886;17.078;2022-10-31T14:23:09;42.15;;;25.67;;
21402;SDS011;10862;51.886;17.078;2022-10-31T14:29:00;51.88;;;24.50;;
21402;SDS011;10862;51.886;17.078;2022-10-31T14:31:33;37.55;;;24.58;;
21402;SDS011;10862;51.886;17.078;2022-10-31T14:50:24;75.18;;;48.95;;
21402;SDS011;10862;51.886;17.078;2022-10-31T14:52:54;67.15;;;41.45;;
21402;SDS011;10862;51.886;17.078;2022-10-31T14:55:21;66.53;;;41.75;;
21402;SDS011;10862;51.886;17.078;2022-10-31T14:57:59;54.00;;;32.35;;
21402;SDS011;10862;51.886;17.078;2022-10-31T15:00:31;56.10;;;31.40;;
21402;SDS011;10862;51.886;17.078;2022-10-31T15:03:42;50.30;;;30.20;;
21402;SDS011;10862;51.886;17.078;2022-10-31T15:05:51;48.10;;;30.08;;
21402;SDS011;10862;51.886;17.078;2022-10-31T15:08:27;52.00;;;31.70;;
21402;SDS011;10862;51.886;17.078;2022-10-31T15:11:21;54.15;;;31.58;;
21402;SDS011;10862;51.886;17.078;2022-10-31T15:13:49;59.20;;;31.88;;
21402;SDS011;10862;51.886;17.078;2022-10-31T15:18:54;99.93;;;55.53;;
21402;SDS011;10862;51.886;17.078;2022-10-31T15:21:23;144.30;;;82.68;;
21402;SDS011;10862;51.886;17.078;2022-10-31T15:23:51;126.70;;;74.57;;
21402;SDS011;10862;51.886;17.078;2022-10-31T15:26:19;112.03;;;64.63;;
21402;SDS011;10862;51.886;17.078;2022-10-31T15:28:57;134.07;;;78.03;;
21402;SDS011;10862;51.886;17.078;2022-10-31T15:31:27;123.15;;;69.55;;
21402;SDS011;10862;51.886;17.078;2022-10-31T15:33:54;120.60;;;63.47;;
21402;SDS011;10862;51.886;17.078;2022-10-31T15:36:24;114.78;;;59.85;;
21402;SDS011;10862;51.886;17.078;2022-10-31T15:38:50;108.90;;;57.80;;
21402;SDS011;10862;51.886;17.078;2022-10-31T15:41:23;107.40;;;48.33;;
21402;SDS011;10862;51.886;17.078;2022-10-31T15:43:50;104.07;;;45.83;;
21402;SDS011;10862;51.886;17.078;2022-10-31T15:46:16;100.63;;;53.67;;
21402;SDS011;10862;51.886;17.078;2022-10-31T15:48:45;120.65;;;61.75;;
21402;SDS011;10862;51.886;17.078;2022-10-31T15:51:12;161.80;;;75.60;;
21402;SDS011;10862;51.886;17.078;2022-10-31T15:53:43;131.90;;;69.03;;
21402;SDS011;10862;51.886;17.078;2022-10-31T15:56:21;139.47;;;67.50;;
21402;SDS011;10862;51.886;17.078;2022-10-31T15:58:50;151.13;;;74.43;;
21402;SDS011;10862;51.886;17.078;2022-10-31T16:01:35;163.43;;;81.23;;
21402;SDS011;10862;51.886;17.078;2022-10-31T16:04:22;138.33;;;71.07;;
21402;SDS011;10862;51.886;17.078;2022-10-31T16:09:59;149.77;;;69.23;;
21402;SDS011;10862;51.886;17.078;2022-10-31T16:12:44;131.67;;;56.17;;
21402;SDS011;10862;51.886;17.078;2022-10-31T16:15:13;121.82;;;55.08;;
21402;SDS011;10862;51.886;17.078;2022-10-31T16:17:40;173.90;;;68.23;;
21402;SDS011;10862;51.886;17.078;2022-10-31T16:20:18;198.40;;;79.80;;
21402;SDS011;10862;51.886;17.078;2022-10-31T16:22:52;179.30;;;74.27;;
21402;SDS011;10862;51.886;17.078;2022-10-31T16:28:05;152.97;;;75.87;;
21402;SDS011;10862;51.886;17.078;2022-10-31T16:30:40;150.87;;;86.10;;
21402;SDS011;10862;51.886;17.078;2022-10-31T16:35:56;138.93;;;67.93;;
21402;SDS011;10862;51.886;17.078;2022-10-31T16:38:23;135.43;;;62.63;;
21402;SDS011;10862;51.886;17.078;2022-10-31T16:40:49;148.67;;;79.17;;
21402;SDS011;10862;51.886;17.078;2022-10-31T16:43:16;123.27;;;66.90;;
21402;SDS011;10862;51.886;17.078;2022-10-31T16:45:44;154.10;;;69.10;;
21402;SDS011;10862;51.886;17.078;2022-10-31T16:48:15;153.40;;;64.50;;
21402;SDS011;10862;51.886;17.078;2022-10-31T16:50:44;125.13;;;55.93;;
21402;SDS011;10862;51.886;17.078;2022-10-31T16:53:11;177.53;;;72.43;;
21402;SDS011;10862;51.886;17.078;2022-10-31T16:56:01;170.10;;;79.43;;
21402;SDS011;10862;51.886;17.078;2022-10-31T16:58:28;154.90;;;84.17;;